createdAt,value
2024-03-02T00:01:45.568Z,79.21
2024-03-02T00:03:47.416Z,79.24
2024-03-02T00:05:55.404Z,79.32
2024-03-02T00:07:59.042Z,79.00
2024-03-02T00:10:01.798Z,78.88
2024-03-02T00:12:04.279Z,79.52
2024-03-02T00:14:06.162Z,79.13
2024-03-02T00:16:08.361Z,79.36
2024-03-02T00:18:13.524Z,79.09
2024-03-02T00:20:20.163Z,79.11
2024-03-02T00:22:22.002Z,79.29
2024-03-02T00:24:34.369Z,79.29
2024-03-02T00:26:36.119Z,79.73
2024-03-02T00:28:38.806Z,79.50
2024-03-02T00:30:46.458Z,79.03
2024-03-02T00:32:48.449Z,79.20
2024-03-02T00:34:50.153Z,79.22
2024-03-02T00:36:52.423Z,79.32
2024-03-02T00:38:56.065Z,79.02
2024-03-02T00:41:00.432Z,79.70
2024-03-02T00:43:03.496Z,79.39
2024-03-02T00:45:09.208Z,79.64
2024-03-02T00:47:10.909Z,79.18
2024-03-02T00:49:12.503Z,79.30
2024-03-02T00:51:14.147Z,79.37
2024-03-02T00:53:15.798Z,79.88
2024-03-02T00:55:17.698Z,79.59
2024-03-02T00:57:19.481Z,79.68
2024-03-02T00:59:21.199Z,81.25
2024-03-02T01:01:23.827Z,83.10
2024-03-02T01:03:25.721Z,81.72
2024-03-02T01:05:27.578Z,80.84
2024-03-02T01:07:29.217Z,79.85
2024-03-02T01:09:30.917Z,80.38
2024-03-02T01:11:33.149Z,80.22
2024-03-02T01:13:35.233Z,79.88
2024-03-02T01:15:37.005Z,79.68
2024-03-02T01:17:39.051Z,79.64
2024-03-02T01:19:43.216Z,79.51
2024-03-02T01:21:45.088Z,79.52
2024-03-02T01:23:46.798Z,79.60
2024-03-02T01:25:49.057Z,79.58
2024-03-02T01:27:50.892Z,79.59
2024-03-02T01:29:52.749Z,79.70
2024-03-02T01:31:54.995Z,79.65
2024-03-02T01:33:57.339Z,79.95
2024-03-02T01:35:59.113Z,79.90
2024-03-02T01:38:00.785Z,80.44
2024-03-02T01:40:02.678Z,79.92
2024-03-02T01:42:04.520Z,80.09
2024-03-02T01:44:06.446Z,79.87
2024-03-02T01:46:08.341Z,79.96
2024-03-02T01:48:10.334Z,80.02
2024-03-02T01:50:15.386Z,79.97
2024-03-02T01:52:17.042Z,79.97
2024-03-02T01:54:18.770Z,79.98
2024-03-02T01:56:20.777Z,80.12
2024-03-02T01:58:22.440Z,80.02
2024-03-02T02:00:26.499Z,79.94
2024-03-02T02:02:28.568Z,80.00
2024-03-02T02:04:30.210Z,80.19
2024-03-02T02:06:31.946Z,80.16
2024-03-02T02:08:33.873Z,80.32
2024-03-02T02:10:35.589Z,80.59
2024-03-02T02:12:37.867Z,80.14
2024-03-02T02:14:41.240Z,80.70
2024-03-02T02:16:42.955Z,80.67
2024-03-02T02:18:44.879Z,80.18
2024-03-02T02:20:46.811Z,82.79
2024-03-02T02:22:57.566Z,81.13
2024-03-02T02:24:59.257Z,80.39
2024-03-02T02:27:00.937Z,80.21
2024-03-02T02:29:02.621Z,80.15
2024-03-02T02:31:04.659Z,79.89
2024-03-02T02:33:06.412Z,80.03
2024-03-02T02:35:08.377Z,80.04
2024-03-02T02:37:10.385Z,80.44
2024-03-02T02:39:18.201Z,80.11
2024-03-02T02:41:19.891Z,80.08
2024-03-02T02:43:21.779Z,79.95
2024-03-02T02:45:23.639Z,80.22
2024-03-02T02:47:25.382Z,80.03
2024-03-02T02:49:27.045Z,80.08
2024-03-02T02:51:28.802Z,80.25
2024-03-02T02:53:30.746Z,80.15
2024-03-02T02:55:32.950Z,80.15
2024-03-02T02:57:40.107Z,80.07
2024-03-02T02:59:41.777Z,80.05
2024-03-02T03:01:43.479Z,80.05
2024-03-02T03:03:46.141Z,79.94
2024-03-02T03:05:47.890Z,80.18
2024-03-02T03:07:52.573Z,80.06
2024-03-02T03:09:54.621Z,80.08
2024-03-02T03:11:56.363Z,80.16
2024-03-02T03:13:58.248Z,80.08
2024-03-02T03:16:00.092Z,80.19
2024-03-02T03:18:01.894Z,80.12
2024-03-02T03:20:05.503Z,80.19
2024-03-02T03:22:07.254Z,80.15
2024-03-02T03:24:09.437Z,80.18
2024-03-02T03:26:11.165Z,80.19
2024-03-02T03:28:12.835Z,80.12
2024-03-02T03:30:15.098Z,80.18
2024-03-02T03:32:18.091Z,80.28
2024-03-02T03:34:19.741Z,80.27
2024-03-02T03:36:21.447Z,80.68
2024-03-02T03:38:23.261Z,80.52
2024-03-02T03:40:24.923Z,80.40
2024-03-02T03:42:26.671Z,80.31
2024-03-02T03:44:28.371Z,80.39
2024-03-02T03:46:30.065Z,80.43
2024-03-02T03:48:32.176Z,80.44
2024-03-02T03:50:33.948Z,80.48
2024-03-02T03:52:35.714Z,80.33
2024-03-02T03:54:39.761Z,80.35
2024-03-02T03:56:41.382Z,80.13
2024-03-02T03:58:43.058Z,80.10
2024-03-02T04:00:44.971Z,80.38
2024-03-02T04:02:46.901Z,81.70
2024-03-02T04:04:48.765Z,81.12
2024-03-02T04:06:50.756Z,80.95
2024-03-02T04:08:52.853Z,80.82
2024-03-02T04:10:54.785Z,80.60
2024-03-02T04:12:56.641Z,81.07
2024-03-02T04:14:58.307Z,81.28
2024-03-02T04:16:59.996Z,81.21
2024-03-02T04:19:01.827Z,81.47
2024-03-02T04:21:03.575Z,81.38
2024-03-02T04:23:05.350Z,81.23
2024-03-02T04:25:08.731Z,81.36
2024-03-02T04:27:10.496Z,81.49
2024-03-02T04:29:12.275Z,81.62
2024-03-02T04:31:13.983Z,81.33
2024-03-02T04:33:15.957Z,81.53
2024-03-02T04:35:17.931Z,81.65
2024-03-02T04:37:19.609Z,81.10
2024-03-02T04:39:21.322Z,81.41
2024-03-02T04:41:23.041Z,81.28
2024-03-02T04:43:24.691Z,81.60
2024-03-02T04:45:26.405Z,81.11
2024-03-02T04:47:28.175Z,80.99
2024-03-02T04:49:30.025Z,80.94
2024-03-02T04:51:31.830Z,81.18
2024-03-02T04:53:33.574Z,81.35
2024-03-02T04:55:35.246Z,81.35
2024-03-02T04:57:37.326Z,81.41
2024-03-02T04:59:38.979Z,81.04
2024-03-02T05:01:40.706Z,81.43
2024-03-02T05:03:42.399Z,81.25
2024-03-02T05:05:44.391Z,81.26
2024-03-02T05:07:46.256Z,81.62
2024-03-02T05:09:49.662Z,81.33
2024-03-02T05:12:10.044Z,81.54
2024-03-02T05:14:12.041Z,81.12
2024-03-02T05:16:13.749Z,81.10
2024-03-02T05:18:15.731Z,80.80
2024-03-02T05:20:18.264Z,81.24
2024-03-02T05:22:19.918Z,81.12
2024-03-02T05:24:21.628Z,80.98
2024-03-02T05:26:23.536Z,81.06
2024-03-02T05:28:25.309Z,82.03
2024-03-02T05:30:27.647Z,81.55
2024-03-02T05:32:29.416Z,81.16
2024-03-02T05:34:31.987Z,81.43
2024-03-02T05:36:33.670Z,81.33
2024-03-02T05:38:38.678Z,81.29
2024-03-02T05:40:40.319Z,81.07
2024-03-02T05:42:42.868Z,80.77
2024-03-02T05:44:44.656Z,81.22
2024-03-02T05:46:47.125Z,80.95
2024-03-02T05:48:49.064Z,81.09
2024-03-02T05:50:51.058Z,80.96
2024-03-02T05:52:52.754Z,81.14
2024-03-02T05:54:54.612Z,81.01
2024-03-02T05:56:56.321Z,81.04
2024-03-02T05:59:17.722Z,81.21
2024-03-02T06:01:19.859Z,80.75
2024-03-02T06:03:21.991Z,80.91
2024-03-02T06:05:23.716Z,81.08
2024-03-02T06:07:25.379Z,80.91
2024-03-02T06:09:27.739Z,80.42
2024-03-02T06:11:29.841Z,80.71
2024-03-02T06:13:31.538Z,80.75
2024-03-02T06:15:34.197Z,80.77
2024-03-02T06:17:38.780Z,80.65
2024-03-02T06:19:40.590Z,80.83
2024-03-02T06:21:42.469Z,80.52
2024-03-02T06:23:44.153Z,80.67
2024-03-02T06:25:45.874Z,80.80
2024-03-02T06:27:47.626Z,80.61
2024-03-02T06:29:49.865Z,80.54
2024-03-02T06:31:54.852Z,80.77
2024-03-02T06:33:56.861Z,80.45
2024-03-02T06:35:58.593Z,81.05
2024-03-02T06:38:00.284Z,80.56
2024-03-02T06:40:02.188Z,80.91
2024-03-02T06:42:04.415Z,80.58
2024-03-02T06:44:08.114Z,80.38
2024-03-02T06:46:10.941Z,80.47
2024-03-02T06:48:12.650Z,80.73
2024-03-02T06:50:14.561Z,80.63
2024-03-02T06:52:16.198Z,80.57
2024-03-02T06:54:17.897Z,80.59
2024-03-02T06:56:19.647Z,80.68
2024-03-02T06:58:21.325Z,80.40
2024-03-02T07:00:23.047Z,80.51
2024-03-02T07:02:25.289Z,80.23
2024-03-02T07:04:27.094Z,80.63
2024-03-02T07:06:28.751Z,80.23
2024-03-02T07:08:30.569Z,80.38
2024-03-02T07:10:32.225Z,80.57
2024-03-02T07:12:34.573Z,80.47
2024-03-02T07:14:55.152Z,80.49
2024-03-02T07:16:56.824Z,80.69
2024-03-02T07:18:58.827Z,80.33
2024-03-02T07:21:02.573Z,80.58
2024-03-02T07:23:04.500Z,80.53
2024-03-02T07:25:08.751Z,80.42
2024-03-02T07:27:11.494Z,80.50
2024-03-02T07:29:13.700Z,80.48
2024-03-02T07:31:15.371Z,80.29
2024-03-02T07:33:18.153Z,80.16
2024-03-02T07:35:19.840Z,80.52
2024-03-02T07:37:21.844Z,80.49
2024-03-02T07:39:23.932Z,80.17
2024-03-02T07:41:25.732Z,80.38
2024-03-02T07:43:27.879Z,80.46
2024-03-02T07:45:29.715Z,80.19
2024-03-02T07:47:31.387Z,80.21
2024-03-02T07:49:33.383Z,80.47
2024-03-02T07:51:35.069Z,80.30
2024-03-02T07:53:37.723Z,79.94
2024-03-02T07:55:39.480Z,79.84
2024-03-02T07:57:42.071Z,79.99
2024-03-02T07:59:44.372Z,79.81
2024-03-02T08:01:46.203Z,79.76
2024-03-02T08:03:49.665Z,79.42
2024-03-02T08:05:51.409Z,79.31
2024-03-02T08:07:54.604Z,79.68
2024-03-02T08:09:56.693Z,79.37
2024-03-02T08:11:59.537Z,79.23
2024-03-02T08:14:01.232Z,79.25
2024-03-02T08:16:04.711Z,79.14
2024-03-02T08:18:06.847Z,79.38
2024-03-02T08:20:09.439Z,79.00
2024-03-02T08:22:11.799Z,78.91
2024-03-02T08:24:13.505Z,78.88
2024-03-02T08:26:15.228Z,78.46
2024-03-02T08:28:17.260Z,78.49
2024-03-02T08:30:19.546Z,78.50
2024-03-02T08:32:21.551Z,78.44
2024-03-02T08:34:23.269Z,78.45
2024-03-02T08:36:25.186Z,78.15
2024-03-02T08:38:27.399Z,78.26
2024-03-02T08:40:30.025Z,78.17
2024-03-02T08:42:31.706Z,77.95
2024-03-02T08:44:34.683Z,77.75
2024-03-02T08:46:36.638Z,77.21
2024-03-02T08:48:38.346Z,77.49
2024-03-02T08:50:40.103Z,77.00
2024-03-02T08:52:41.833Z,76.92
2024-03-02T08:54:43.565Z,77.03
2024-03-02T08:56:45.525Z,76.91
2024-03-02T08:58:47.521Z,77.44
2024-03-02T09:00:49.487Z,77.42
2024-03-02T09:02:51.315Z,77.81
2024-03-02T09:04:53.376Z,77.52
2024-03-02T09:06:55.145Z,77.27
2024-03-02T09:08:57.070Z,77.24
2024-03-02T09:10:58.824Z,77.30
2024-03-02T09:13:01.022Z,76.06
2024-03-02T09:15:07.659Z,77.33
2024-03-02T09:17:12.266Z,77.06
2024-03-02T09:19:14.010Z,77.00
2024-03-02T09:21:16.642Z,76.60
2024-03-02T09:23:18.302Z,74.84
2024-03-02T09:25:19.905Z,76.18
2024-03-02T09:27:22.039Z,75.96
2024-03-02T09:29:23.866Z,76.32
2024-03-02T09:31:25.602Z,76.06
2024-03-02T09:33:27.798Z,75.69
2024-03-02T09:35:30.139Z,75.75
2024-03-02T09:37:31.965Z,74.39
2024-03-02T09:39:33.897Z,75.14
2024-03-02T09:41:36.069Z,74.19
2024-03-02T09:43:37.827Z,74.07
2024-03-02T09:45:39.678Z,74.62
2024-03-02T09:47:41.354Z,72.89
2024-03-02T09:49:43.033Z,73.60
2024-03-02T09:51:51.281Z,73.71
2024-03-02T09:53:58.193Z,74.07
2024-03-02T09:56:02.076Z,73.25
2024-03-02T09:58:04.752Z,73.55
2024-03-02T10:00:07.251Z,73.28
2024-03-02T10:02:08.957Z,73.18
2024-03-02T10:04:11.292Z,72.74
2024-03-02T10:06:26.478Z,72.87
2024-03-02T10:08:41.579Z,72.61
2024-03-02T10:10:44.549Z,72.04
2024-03-02T10:12:46.322Z,71.85
2024-03-02T10:14:50.059Z,72.00
2024-03-02T10:16:51.734Z,72.07
2024-03-02T10:18:53.776Z,71.62
2024-03-02T10:21:14.662Z,71.48
2024-03-02T10:23:18.845Z,71.57
2024-03-02T10:25:43.247Z,71.48
2024-03-02T10:27:53.122Z,70.89
2024-03-02T10:29:55.110Z,71.22
2024-03-02T10:31:57.392Z,70.82
2024-03-02T10:33:59.445Z,70.71
2024-03-02T10:36:02.304Z,69.23
2024-03-02T10:38:06.825Z,70.70
2024-03-02T10:40:09.670Z,69.21
2024-03-02T10:42:12.724Z,68.96
2024-03-02T10:44:15.100Z,68.75
2024-03-02T10:46:20.893Z,68.85
2024-03-02T10:48:23.006Z,68.50
2024-03-02T10:50:26.034Z,68.38
2024-03-02T10:52:27.828Z,67.84
2024-03-02T10:54:37.837Z,67.04
2024-03-02T10:56:42.133Z,66.59
2024-03-02T10:58:44.041Z,66.82
2024-03-02T11:00:47.349Z,66.92
2024-03-02T11:02:53.012Z,67.56
2024-03-02T11:04:56.553Z,67.22
2024-03-02T11:07:05.645Z,66.40
2024-03-02T11:09:11.724Z,66.32
2024-03-02T11:11:21.677Z,66.05
2024-03-02T11:13:33.340Z,65.66
2024-03-02T11:15:37.116Z,66.35
2024-03-02T11:17:42.121Z,66.22
2024-03-02T11:19:45.348Z,65.91
2024-03-02T11:21:47.805Z,65.85
2024-03-02T11:23:49.824Z,64.80
2024-03-02T11:25:51.464Z,64.69
2024-03-02T11:27:56.195Z,65.31
2024-03-02T11:29:57.916Z,64.09
2024-03-02T11:32:03.062Z,64.57
2024-03-02T11:34:30.816Z,64.95
2024-03-02T11:36:32.670Z,65.22
2024-03-02T11:38:35.656Z,64.41
2024-03-02T11:40:37.699Z,64.71
2024-03-02T11:42:39.724Z,64.82
2024-03-02T11:44:44.874Z,64.02
2024-03-02T11:46:53.404Z,64.47
2024-03-02T11:48:55.628Z,64.67
2024-03-02T11:51:01.034Z,63.98
2024-03-02T11:53:03.709Z,62.69
2024-03-02T11:55:07.522Z,64.40
2024-03-02T11:57:10.065Z,64.32
2024-03-02T11:59:12.162Z,63.38
2024-03-02T12:01:14.825Z,63.38
2024-03-02T12:03:16.848Z,63.67
2024-03-02T12:05:18.651Z,63.41
2024-03-02T12:07:25.310Z,62.85
2024-03-02T12:09:31.166Z,57.84
2024-03-02T12:11:32.904Z,61.23
2024-03-02T12:13:35.451Z,62.76
2024-03-02T12:15:39.345Z,62.77
2024-03-02T12:17:41.487Z,61.41
2024-03-02T12:19:43.255Z,62.31
2024-03-02T12:21:45.332Z,62.12
2024-03-02T12:23:47.293Z,62.56
2024-03-02T12:25:49.262Z,60.28
2024-03-02T12:27:55.750Z,60.28
2024-03-02T12:29:57.630Z,62.37
2024-03-02T12:31:59.376Z,57.97
2024-03-02T12:34:01.472Z,61.91
2024-03-02T12:36:03.712Z,60.80
2024-03-02T12:38:06.078Z,54.58
2024-03-02T12:40:10.922Z,60.83
2024-03-02T12:42:12.817Z,61.14
2024-03-02T12:44:14.691Z,59.05
2024-03-02T12:46:17.063Z,59.90
2024-03-02T12:48:18.938Z,56.94
2024-03-02T12:50:21.673Z,59.52
2024-03-02T12:52:23.635Z,59.18
2024-03-02T12:54:26.882Z,59.11
2024-03-02T12:56:28.980Z,60.65
2024-03-02T12:58:32.427Z,60.59
2024-03-02T13:00:36.632Z,59.45
2024-03-02T13:04:59.585Z,59.39
2024-03-02T13:07:03.832Z,58.55
2024-03-02T13:09:05.853Z,57.03
2024-03-02T13:11:08.554Z,54.09
2024-03-02T13:13:10.503Z,60.09
2024-03-02T13:15:16.319Z,61.23
2024-03-02T13:17:20.729Z,56.97
2024-03-02T13:19:22.753Z,57.26
2024-03-02T13:21:24.551Z,58.01
2024-03-02T13:23:26.376Z,57.96
2024-03-02T13:25:29.557Z,57.85
2024-03-02T13:27:35.778Z,57.62
2024-03-02T13:29:38.478Z,55.71
2024-03-02T13:31:41.276Z,59.68
2024-03-02T13:33:43.075Z,54.23
2024-03-02T13:35:44.816Z,59.25
2024-03-02T13:37:46.485Z,55.15
2024-03-02T13:39:48.385Z,55.34
2024-03-02T13:41:54.170Z,55.44
2024-03-02T13:43:55.969Z,53.54
2024-03-02T13:45:57.848Z,53.58
2024-03-02T13:47:59.751Z,60.73
2024-03-02T13:50:01.483Z,57.22
2024-03-02T13:52:11.832Z,58.97
2024-03-02T13:54:13.736Z,57.17
2024-03-02T13:56:15.480Z,59.11
2024-03-02T13:58:17.402Z,56.42
2024-03-02T14:00:20.218Z,57.95
2024-03-02T14:02:22.129Z,58.25
2024-03-02T14:04:24.003Z,56.29
2024-03-02T14:06:28.381Z,57.91
2024-03-02T14:08:30.224Z,56.43
2024-03-02T14:10:31.900Z,56.30
2024-03-02T14:12:33.845Z,57.25
2024-03-02T14:14:35.611Z,59.39
2024-03-02T14:16:37.326Z,58.50
2024-03-02T14:18:39.207Z,57.86
2024-03-02T14:20:42.681Z,58.37
2024-03-02T14:22:44.904Z,58.20
2024-03-02T14:24:46.709Z,57.45
2024-03-02T14:26:48.563Z,58.38
2024-03-02T14:28:51.768Z,57.47
2024-03-02T14:30:55.121Z,57.59
2024-03-02T14:32:56.918Z,57.09
2024-03-02T14:34:58.626Z,57.80
2024-03-02T14:37:00.982Z,55.71
2024-03-02T14:39:02.767Z,58.53
2024-03-02T14:41:05.280Z,59.01
2024-03-02T14:43:06.960Z,58.62
2024-03-02T14:45:08.977Z,58.04
2024-03-02T14:47:10.831Z,58.84
2024-03-02T14:49:13.189Z,57.86
2024-03-02T14:51:15.638Z,58.90
2024-03-02T14:53:17.699Z,58.87
2024-03-02T14:55:19.650Z,58.84
2024-03-02T14:57:21.799Z,59.00
2024-03-02T14:59:23.894Z,57.69
2024-03-02T15:01:26.152Z,58.97
2024-03-02T15:03:27.954Z,59.28
2024-03-02T15:05:29.682Z,59.61
2024-03-02T15:07:31.376Z,59.47
2024-03-02T15:09:35.069Z,60.02
2024-03-02T15:11:37.078Z,59.88
2024-03-02T15:13:39.062Z,60.06
2024-03-02T15:15:40.946Z,60.80
2024-03-02T15:17:43.097Z,61.12
2024-03-02T15:19:45.838Z,60.44
2024-03-02T15:21:47.517Z,59.08
2024-03-02T15:23:49.243Z,60.71
2024-03-02T15:25:51.000Z,61.05
2024-03-02T15:27:52.818Z,57.40
2024-03-02T15:29:56.547Z,57.60
2024-03-02T15:31:58.963Z,62.34
2024-03-02T15:34:04.048Z,61.50
2024-03-02T15:36:06.497Z,60.98
2024-03-02T15:38:17.959Z,61.16
2024-03-02T15:40:48.415Z,60.31
2024-03-02T15:42:50.223Z,60.67
2024-03-02T15:44:51.936Z,60.83
2024-03-02T15:46:54.010Z,60.74
2024-03-02T15:48:56.516Z,60.68
2024-03-02T15:51:00.939Z,57.83
2024-03-02T15:53:05.718Z,58.09
2024-03-02T15:55:08.077Z,57.95
2024-03-02T15:57:09.879Z,62.63
2024-03-02T15:59:11.611Z,62.86
2024-03-02T16:01:14.368Z,63.49
2024-03-02T16:03:16.064Z,63.29
2024-03-02T16:05:18.425Z,63.15
2024-03-02T16:07:20.127Z,59.17
2024-03-02T16:09:21.962Z,58.46
2024-03-02T16:11:23.942Z,61.16
2024-03-02T16:13:25.711Z,66.98
2024-03-02T16:15:29.643Z,66.76
2024-03-02T16:17:31.491Z,63.79
2024-03-02T16:19:33.734Z,66.62
2024-03-02T19:15:13.250Z,70.76
2024-03-02T19:17:15.077Z,72.18
2024-03-02T19:19:16.995Z,71.25
2024-03-02T19:21:18.746Z,71.31
2024-03-02T19:23:25.730Z,72.66
2024-03-02T19:25:33.737Z,73.31
2024-03-02T19:27:35.509Z,71.73
2024-03-02T19:29:37.326Z,72.84
2024-03-02T19:31:39.230Z,71.67
2024-03-02T19:33:41.401Z,72.16
2024-03-02T19:35:43.490Z,72.89
2024-03-02T19:37:45.227Z,72.07
2024-03-02T19:39:47.198Z,72.65
2024-03-02T19:41:49.177Z,71.92
2024-03-02T19:43:50.993Z,73.77
2024-03-02T19:45:52.931Z,74.13
2024-03-02T19:47:54.753Z,72.29
2024-03-02T19:49:56.549Z,71.80
2024-03-02T19:51:58.400Z,72.76
2024-03-02T19:54:00.784Z,73.26
2024-03-02T19:56:02.762Z,74.52
2024-03-02T19:58:05.259Z,73.66
2024-03-02T20:00:08.057Z,74.84
2024-03-02T20:02:15.336Z,74.48
2024-03-02T20:04:25.287Z,73.53
2024-03-02T20:06:27.045Z,75.50
2024-03-02T20:08:30.416Z,74.75
2024-03-02T20:10:32.575Z,73.71
2024-03-02T20:12:34.744Z,73.89
2024-03-02T20:14:37.385Z,73.72
2024-03-02T20:16:46.638Z,73.30
2024-03-02T20:18:48.411Z,73.51
2024-03-02T20:20:50.174Z,73.45
2024-03-02T20:22:51.874Z,73.72
2024-03-02T20:24:53.634Z,74.26
2024-03-02T20:26:56.228Z,75.62
2024-03-02T20:28:58.384Z,75.57
2024-03-02T20:31:01.354Z,74.66
2024-03-02T20:33:03.200Z,75.61
2024-03-02T20:35:05.249Z,74.52
2024-03-02T20:37:07.443Z,75.36
2024-03-02T20:39:09.724Z,74.10
2024-03-02T20:41:18.671Z,74.04
2024-03-02T20:43:20.448Z,73.79
2024-03-02T20:45:22.250Z,73.42
2024-03-02T20:47:24.303Z,74.64
2024-03-02T20:49:27.403Z,76.22
2024-03-02T20:51:32.626Z,73.62
2024-03-02T20:53:34.646Z,74.72
2024-03-02T20:55:37.403Z,74.36
2024-03-02T20:57:40.829Z,73.62
2024-03-02T20:59:42.661Z,73.32
2024-03-02T21:01:45.700Z,73.11
2024-03-02T21:03:48.366Z,73.06
2024-03-02T21:05:50.520Z,74.30
2024-03-02T21:07:52.350Z,75.45
2024-03-02T21:09:55.321Z,76.34
2024-03-02T21:11:57.318Z,75.40
2024-03-02T21:14:00.126Z,73.52
2024-03-02T21:16:01.938Z,73.78
2024-03-02T21:18:04.190Z,73.36
2024-03-02T21:20:10.165Z,73.08
2024-03-02T21:22:12.003Z,73.56
2024-03-02T21:24:14.943Z,77.16
2024-03-02T21:26:16.679Z,77.33
2024-03-02T21:28:18.543Z,74.26
2024-03-02T21:30:20.769Z,73.59
2024-03-02T21:32:22.607Z,73.50
2024-03-02T21:34:24.477Z,73.60
2024-03-02T21:36:26.232Z,73.72
2024-03-02T21:38:27.909Z,73.48
2024-03-02T21:40:33.265Z,73.62
2024-03-02T21:42:35.194Z,73.86
2024-03-02T21:44:37.011Z,73.50
2024-03-02T21:46:39.647Z,73.41
2024-03-02T21:48:41.360Z,73.59
2024-03-02T21:50:43.173Z,73.81
2024-03-02T21:52:46.486Z,74.03
2024-03-02T21:54:48.733Z,73.59
2024-03-02T21:56:52.402Z,73.76
2024-03-02T21:58:54.465Z,74.00
2024-03-02T22:00:56.259Z,73.64
2024-03-02T22:02:59.543Z,74.03
2024-03-02T22:05:01.572Z,73.98
2024-03-02T22:07:03.993Z,73.67
2024-03-02T22:09:07.124Z,74.64
2024-03-02T22:11:08.938Z,75.15
2024-03-02T22:13:10.888Z,74.06
2024-03-02T22:15:12.700Z,73.66
2024-03-02T22:17:14.525Z,75.14
2024-03-02T22:19:16.305Z,76.44
2024-03-02T22:21:18.094Z,74.62
2024-03-02T22:23:19.882Z,77.19
2024-03-02T22:25:21.781Z,79.46
2024-03-02T22:27:23.594Z,79.98
2024-03-02T22:29:25.665Z,79.25
2024-03-02T22:31:27.759Z,79.83
2024-03-02T22:33:29.518Z,78.28
2024-03-02T22:35:31.571Z,78.41
2024-03-02T22:37:33.604Z,75.63
2024-03-02T22:39:35.342Z,76.05
2024-03-02T22:41:37.290Z,74.76
2024-03-02T22:43:39.325Z,74.63
2024-03-02T22:45:41.775Z,74.42
2024-03-02T22:47:43.610Z,74.43
2024-03-02T22:49:45.342Z,74.28
2024-03-02T22:51:47.492Z,74.14
2024-03-02T22:53:49.693Z,74.26
2024-03-02T22:55:51.426Z,74.13
2024-03-02T22:57:53.252Z,74.61
2024-03-02T22:59:56.208Z,74.33
2024-03-02T23:01:58.140Z,77.99
2024-03-02T23:04:00.079Z,79.92
2024-03-02T23:06:01.868Z,79.57
2024-03-02T23:08:03.692Z,76.48
2024-03-02T23:10:06.361Z,75.33
2024-03-02T23:12:08.439Z,77.70
2024-03-02T23:14:10.965Z,79.54
2024-03-02T23:16:12.772Z,80.55
2024-03-02T23:18:14.695Z,80.86
2024-03-02T23:20:16.507Z,81.37
2024-03-02T23:22:18.306Z,81.47
2024-03-02T23:24:20.505Z,80.42
2024-03-02T23:26:23.631Z,80.98
2024-03-02T23:28:25.380Z,79.33
2024-03-02T23:30:27.633Z,77.53
2024-03-02T23:32:29.606Z,76.42
2024-03-02T23:34:31.580Z,75.16
2024-03-02T23:36:33.594Z,75.04
2024-03-02T23:38:35.330Z,75.37
2024-03-02T23:40:56.932Z,75.25
2024-03-02T23:42:58.634Z,75.46
2024-03-02T23:45:00.500Z,76.06
2024-03-02T23:47:02.355Z,75.55
2024-03-02T23:49:04.352Z,75.38
2024-03-02T23:51:06.543Z,76.04
2024-03-02T23:53:08.193Z,79.95
2024-03-02T23:55:10.072Z,81.40
2024-03-02T23:57:12.104Z,81.62
2024-03-02T23:59:13.940Z,81.57
